Jones, Minnesota
Current Conditions -  °F | °C
As of 7:33 PM on Tuesday 21 Oct 2014 (Local Time) from KBJI Reporting Station
Clear Clear  
Wind Chill: 44°   Ceiling: Unl
Heat Index: 49°   Visibility: 10mi
Dew Point: 37°   Wind: 15mph
Humidity: 64%   Direction: 140°SE
Pressure: 30.03"   Gusts: NA
Location:  47.5271°N, 94.7611°W
Report Text: KBJI 220033Z AUTO 14013KT 10SM CLR 10/03 A3003 RMK AO2 T00950030
Loading
Personal Weather Stations






























Interactive Weather Map
Tropical Storm Tracking
New forecast layout! Learn more

10-Day Weather Forecast

Advertisements
Track Severe Weather on mobile